Aérodrome :
LOGIN :

S'inscrire | Disclaimer

   EN    FR    IT 

 










Légende :    VFR   VFR Marginal   IFR   IFR Intensif   IFR Très Intensif
Visi : 
Plafond : 
>= 8 km
>= 3000ft
5 à 8 km
1000 à 3000 ft
1500m à 5 km
500 à 1000 ft
800 à 1500m
200 à 500 ft
< 800m
< 200 ft
Symboles :   Orages  Brouillard  Fortes neiges  Fortes précipitations  Vent > 20 kt
SIGMETs :   Divers  Orages  Givrage  Turbulence  Onde Orograph.  Cendres Volcan.







- Altitude de l'aérodrome : 659 ft
- Code IATA : LGG


EBLG - Liège

DERNIER METAR :
  • 272250Z 18006KT CAVOK 20/12 Q1017 NOSIG

METARs EXPIRÉS :
  • 272220Z 17006KT CAVOK 20/12 Q1017 NOSIG
  • 272150Z 15009KT CAVOK 21/12 Q1017 NOSIG
  • 272120Z 14007KT 110V170 CAVOK 20/13 Q1017 NOSIG
  • 272050Z 15008KT CAVOK 20/13 Q1017 NOSIG
  • 272020Z 15010KT 120V180 CAVOK 21/13 Q1017 NOSIG

TAF COR TAF EBLG
Valide du 27 à 18h jusqu'au 29 à 00h UTC


271900Z 2718/2824 10005KT 9999 FEW045TCU
PROB30
TEMPO 2712/2802 VRB20G35KT 2500 +SHRA TSRAGR
TEMPO 2802/2807 3000 BR
PROB30
TEMPO 2803/2806 1500 MIFG
PROB30
TEMPO 2813/2824 VRB20G35KT 2500 +SHRA TSRAGR
Pas de NOTAMs connus pour ce terrain.



MET'MAP, la Météo Aéronautique d'un coup d'oeil ! - Copyright ORBIFLY Décembre 2007 - Disclaimer

ORBIFLY MET'MAP TEAM :

Programmation & Développement : Alexandra Zaïnal
Conception & Développement : Baudouin d'Aumeries
Co-Programmation & Développement : Marc-Olivier Méhu
Soutien technique & logistique : Manuel Goepfert

Contact : metmap@orbifly.com




SOURCES & CREDITS :

   NOAA